Time;durP1;ratioP1;P1;durP2;ratioP2;P2;SDS_P1;SDS_P2;PMS_P1;PMS_P2;Temp;Humidity;BMP_temperature;BMP_pressure;BME280_temperature;BME280_humidity;BME280_pressure;Samples;Min_cycle;Max_cycle;Signal;HPM_P1;HPM_P2
2022/03/23 17:27:23;;;;;;;25.20;9.63;;;;;;;14.89;21.11;99929.57;2171894;81;21215;-59
2022/03/23 17:30:25;;;;;;;28.60;10.10;;;;;;;14.59;21.65;99924.34;2172098;81;21662;-59
2022/03/23 17:33:27;;;;;;;39.40;19.67;;;;;;;14.35;22.00;99927.03;2172124;81;21056;-59
2022/03/23 17:36:28;;;;;;;41.03;18.23;;;;;;;14.04;22.31;99927.97;2172323;82;21078;-60
2022/03/23 17:39:30;;;;;;;37.30;17.15;;;;;;;13.76;22.46;99936.12;2170347;82;21030;-59
2022/03/23 17:42:32;;;;;;;46.07;18.37;;;;;;;13.47;23.34;99939.09;2171524;81;21157;-59
2022/03/23 17:45:33;;;;;;;48.05;20.02;;;;;;;13.13;23.87;99932.98;2172264;82;21117;-59
2022/03/23 17:48:35;;;;;;;55.53;24.40;;;;;;;12.82;23.95;99936.78;2172196;82;21023;-59
2022/03/23 17:51:37;;;;;;;;;;;;;;;12.56;24.55;99936.84;2174917;82;20974;-59
2022/03/23 17:54:39;;;;;;;74.70;31.87;;;;;;;12.23;25.07;99940.73;2172173;82;20396;-59
2022/03/23 17:57:41;;;;;;;;;;;;;;;11.97;25.37;99944.19;2174773;82;21002;-59
2022/03/23 18:00:43;;;;;;;98.52;38.67;;;;;;;11.86;25.57;99941.19;2172436;82;20113;-59
2022/03/23 18:03:45;;;;;;;64.97;26.60;;;;;;;11.69;26.13;99942.84;2172346;82;21584;-62
2022/03/23 18:06:46;;;;;;;62.97;27.60;;;;;;;11.50;26.17;99942.86;2172447;82;20970;-61
2022/03/23 18:09:48;;;;;;;74.65;34.35;;;;;;;11.33;26.62;99933.61;2171979;82;21074;-61
2022/03/23 18:12:50;;;;;;;118.73;58.13;;;;;;;11.17;26.96;99932.16;2172173;82;21133;-62
2022/03/23 18:15:52;;;;;;;101.50;46.60;;;;;;;11.00;27.20;99935.55;2172302;82;21054;-61
2022/03/23 18:18:53;;;;;;;95.42;47.03;;;;;;;10.84;27.52;99936.69;2172415;82;21057;-62
2022/03/23 18:21:55;;;;;;;77.03;36.35;;;;;;;10.68;27.78;99932.11;2172313;82;21031;-62
2022/03/23 18:24:56;;;;;;;94.00;43.92;;;;;;;10.52;28.17;99933.71;2172567;82;21549;-62
2022/03/23 18:27:57;;;;;;;65.97;31.03;;;;;;;10.42;28.18;99937.66;2172311;82;21030;-61
2022/03/23 18:30:59;;;;;;;67.30;30.73;;;;;;;10.24;28.72;99930.90;2172289;82;21541;-62
2022/03/23 18:34:00;;;;;;;83.72;36.28;;;;;;;10.03;29.17;99935.29;2172438;82;21025;-62
2022/03/23 18:37:02;;;;;;;74.53;34.90;;;;;;;9.94;29.19;99935.64;2172285;82;21074;-62
2022/03/23 18:40:03;;;;;;;66.57;32.15;;;;;;;9.84;29.54;99933.84;2172246;82;21133;-62
2022/03/23 18:43:05;;;;;;;71.35;33.83;;;;;;;9.71;29.81;99930.43;2172080;81;21117;-62
2022/03/23 18:46:06;;;;;;;68.52;32.48;;;;;;;9.65;29.95;99929.81;2172575;82;21042;-62
2022/03/23 18:49:08;;;;;;;78.72;35.23;;;;;;;9.53;30.34;99924.61;2172039;82;21078;-61
2022/03/23 18:52:09;;;;;;;81.37;36.70;;;;;;;9.38;30.52;99926.06;2172539;82;21042;-61
2022/03/23 18:55:12;;;;;;;109.87;49.50;;;;;;;9.23;30.82;99924.87;2172257;82;21086;-61
2022/03/23 18:58:13;;;;;;;94.25;43.15;;;;;;;9.09;30.82;99924.53;2172180;82;21045;-61
2022/03/23 19:01:16;;;;;;;65.12;30.68;;;;;;;8.94;31.30;99919.42;2172018;82;21062;-61
2022/03/23 19:04:17;;;;;;;;;;;;;;;8.78;31.72;99925.67;2174577;82;21074;-61
2022/03/23 19:07:21;;;;;;;55.88;25.45;;;;;;;8.64;31.80;99914.39;2172118;82;20108;-61
2022/03/23 19:10:24;;;;;;;60.28;26.82;;;;;;;8.40;32.26;99919.52;2171640;82;21003;-61
2022/03/23 19:13:26;;;;;;;125.85;57.45;;;;;;;8.21;33.15;99924.53;2171976;82;21529;-62
2022/03/23 19:16:27;;;;;;;118.55;52.85;;;;;;;7.92;33.35;99934.19;2172231;82;21062;-61
2022/03/23 19:19:31;;;;;;;130.25;56.10;;;;;;;7.65;33.56;99932.01;2172252;82;21538;-61
2022/03/23 19:22:32;;;;;;;112.70;48.30;;;;;;;7.45;33.99;99932.16;2161737;82;21529;-61
2022/03/23 19:25:33;;;;;;;114.90;52.50;;;;;;;7.42;34.31;99932.72;2172159;82;21010;-61
2022/03/23 19:28:35;;;;;;;92.17;45.20;;;;;;;7.33;34.39;99925.18;2172130;82;21118;-61
2022/03/23 19:31:38;;;;;;;77.25;36.42;;;;;;;7.19;34.73;99921.20;2172088;82;21055;-61
2022/03/23 19:34:39;;;;;;;60.92;30.05;;;;;;;7.14;34.91;99915.72;2172318;82;21094;-61
2022/03/23 19:37:41;;;;;;;74.33;35.20;;;;;;;7.02;35.09;99919.55;2172319;82;21010;-61
2022/03/23 19:40:42;;;;;;;84.47;37.50;;;;;;;6.88;35.42;99922.11;2172522;82;21058;-61
2022/03/23 19:43:44;;;;;;;85.10;35.98;;;;;;;6.70;35.87;99915.64;2178220;81;21064;-61
2022/03/23 19:46:46;;;;;;;142.57;60.75;;;;;;;6.58;35.94;99915.54;2182258;81;21049;-61
2022/03/23 19:49:48;;;;;;;123.47;53.87;;;;;;;6.47;36.25;99912.36;2181750;82;21049;-61
2022/03/23 19:52:49;;;;;;;136.15;57.62;;;;;;;6.40;36.54;99912.96;2182031;82;21505;-61
2022/03/23 19:55:51;;;;;;;120.57;50.10;;;;;;;6.40;36.45;99910.81;2182080;81;21002;-61
2022/03/23 19:58:52;;;;;;;118.10;50.40;;;;;;;6.32;37.01;99915.36;2182015;81;20950;-61
2022/03/23 20:01:54;;;;;;;85.42;38.28;;;;;;;6.27;37.48;99919.86;2182185;81;21053;-61
2022/03/23 20:04:55;;;;;;;82.80;36.95;;;;;;;5.99;37.76;99923.14;2182020;82;20935;-61
2022/03/23 20:07:57;;;;;;;96.75;41.92;;;;;;;5.88;38.35;99922.93;2182311;81;20950;-61
2022/03/23 20:10:58;;;;;;;88.70;38.95;;;;;;;5.72;38.29;99922.44;2182184;81;20970;-61
2022/03/23 20:14:00;;;;;;;78.30;36.38;;;;;;;5.58;38.40;99923.66;2182570;81;21025;-61
2022/03/23 20:17:01;;;;;;;75.87;34.43;;;;;;;5.45;38.92;99925.69;2182129;81;20997;-61
2022/03/23 20:20:03;;;;;;;82.60;35.28;;;;;;;5.38;38.98;99922.36;2182095;81;21414;-61
2022/03/23 20:23:04;;;;;;;82.35;36.65;;;;;;;5.33;39.36;99926.79;2182372;81;20997;-61
2022/03/23 20:26:06;;;;;;;90.80;39.27;;;;;;;5.32;39.16;99929.85;2182345;81;21029;-61
2022/03/23 20:29:08;;;;;;;72.92;31.57;;;;;;;5.26;39.76;99936.50;2182292;81;21271;-61
2022/03/23 20:32:09;;;;;;;74.15;29.87;;;;;;;5.36;39.73;99938.46;2182027;82;21041;-61
2022/03/23 20:35:11;;;;;;;390.62;128.15;;;;;;;5.30;39.92;99939.87;2182401;81;21010;-61
2022/03/23 20:38:13;;;;;;;178.12;64.92;;;;;;;5.17;40.09;99939.28;2182688;81;21063;-61
2022/03/23 20:41:15;;;;;;;128.38;46.68;;;;;;;5.00;40.59;99938.34;2182402;82;20981;-61
2022/03/23 20:44:17;;;;;;;158.27;50.70;;;;;;;4.88;40.99;99934.69;2174781;81;21082;-61
2022/03/23 20:47:19;;;;;;;167.25;72.90;;;;;;;4.79;41.03;99929.23;2172554;82;21046;-61
2022/03/23 20:50:20;;;;;;;122.17;54.88;;;;;;;4.70;41.14;99930.27;2172265;82;21058;-61
2022/03/23 20:53:22;;;;;;;134.00;56.02;;;;;;;4.63;41.44;99932.11;2172275;82;21006;-61
2022/03/23 20:56:24;;;;;;;118.20;50.87;;;;;;;4.60;41.38;99926.13;2172302;82;21046;-61
2022/03/23 20:59:25;;;;;;;117.35;51.42;;;;;;;4.55;41.53;99922.30;2172247;82;21356;-61
2022/03/23 21:02:27;;;;;;;146.00;59.40;;;;;;;4.51;41.51;99926.71;2172508;82;21011;-61
2022/03/23 21:05:30;;;;;;;131.07;52.65;;;;;;;4.41;41.64;99929.06;2172531;82;21228;-61
2022/03/23 21:11:35;;;;;;;148.50;61.50;;;;;;;4.29;42.14;99927.98;2161887;82;20133;-61
2022/03/23 21:14:36;;;;;;;146.27;59.63;;;;;;;4.23;42.28;99931.53;2172506;82;21050;-61
2022/03/23 21:17:38;;;;;;;136.15;58.85;;;;;;;4.15;42.28;99932.10;2172481;82;21208;-61
2022/03/23 21:20:39;;;;;;;129.37;53.07;;;;;;;4.15;42.62;99926.91;2172416;82;20995;-61
2022/03/23 21:23:41;;;;;;;120.00;48.87;;;;;;;4.05;42.76;99917.56;2172285;82;21704;-61
2022/03/23 21:26:42;;;;;;;123.37;51.80;;;;;;;3.96;42.82;99931.55;2172383;82;21019;-61
2022/03/23 21:29:44;;;;;;;116.10;53.13;;;;;;;3.83;43.17;99927.45;2172207;82;21563;-61
2022/03/23 21:32:46;;;;;;;118.20;53.48;;;;;;;3.71;43.46;99930.66;2172229;82;21748;-61
2022/03/23 21:35:47;;;;;;;111.80;51.63;;;;;;;3.62;43.62;99928.17;2172075;82;21041;-61
2022/03/23 21:38:49;;;;;;;108.70;49.00;;;;;;;3.60;43.64;99928.20;2172327;82;21036;-61
2022/03/23 21:41:51;;;;;;;104.53;46.05;;;;;;;3.56;43.94;99933.05;2172262;82;21066;-61
2022/03/23 21:44:52;;;;;;;103.50;46.83;;;;;;;3.47;43.89;99927.98;2172181;81;21054;-61
2022/03/23 21:47:54;;;;;;;107.55;48.45;;;;;;;3.44;44.21;99933.21;2172118;82;21062;-61
2022/03/23 21:50:55;;;;;;;104.03;47.88;;;;;;;3.44;44.39;99931.46;2171969;82;21118;-61
2022/03/23 21:53:59;;;;;;;130.07;51.95;;;;;;;3.40;44.57;99926.34;2161344;82;21010;-61
2022/03/23 21:57:00;;;;;;;89.80;37.43;;;;;;;3.37;45.03;99932.43;2172321;82;21050;-61
2022/03/23 22:00:02;;;;;;;98.62;41.20;;;;;;;3.31;45.71;99933.81;2172329;82;21521;-61
2022/03/23 22:03:07;;;;;;;87.75;37.55;;;;;;;3.24;45.50;99937.38;2161865;82;21049;-61
2022/03/23 22:06:09;;;;;;;100.60;44.10;;;;;;;3.09;46.00;99937.14;2172208;82;21065;-61
2022/03/23 22:09:10;;;;;;;77.90;34.33;;;;;;;3.02;45.87;99937.65;2172171;82;21546;-61
2022/03/23 22:12:12;;;;;;;91.17;37.60;;;;;;;2.94;46.15;99937.75;2172083;82;21039;-61
2022/03/23 22:15:14;;;;;;;70.47;30.68;;;;;;;2.86;46.18;99934.80;2172051;82;21561;-61
2022/03/23 22:18:17;;;;;;;74.80;31.45;;;;;;;2.78;46.75;99934.91;2171958;82;21098;-60
2022/03/23 22:21:21;;;;;;;;;;;;;;;2.66;46.82;99935.91;2174304;82;21070;-61
2022/03/23 22:24:22;;;;;;;91.90;41.80;;;;;;;2.60;47.07;99934.66;2172059;82;20097;-61
2022/03/23 22:27:24;;;;;;;105.25;47.62;;;;;;;2.69;47.34;99938.46;2172077;82;21109;-61
2022/03/23 22:30:25;;;;;;;76.20;34.85;;;;;;;2.62;47.10;99934.67;2172211;82;21042;-61
2022/03/23 22:33:26;;;;;;;82.55;36.58;;;;;;;2.50;47.25;99927.45;2172064;82;21071;-60
2022/03/23 22:36:28;;;;;;;121.92;48.17;;;;;;;2.45;47.59;99927.06;2172336;82;21073;-60
2022/03/23 22:39:29;;;;;;;129.23;50.92;;;;;;;2.45;47.83;99921.89;2172032;82;21039;-61
2022/03/23 22:42:31;;;;;;;115.70;47.48;;;;;;;2.51;47.29;99923.95;2172294;82;21599;-61
2022/03/23 22:45:32;;;;;;;140.25;62.58;;;;;;;2.47;47.82;99925.30;2181238;81;21077;-61
2022/03/23 22:48:33;;;;;;;177.95;83.85;;;;;;;2.43;47.94;99924.05;2181926;81;21504;-61
2022/03/23 22:51:35;;;;;;;168.90;79.42;;;;;;;2.39;48.14;99927.98;2182032;81;20990;-61
2022/03/23 22:54:37;;;;;;;173.60;81.75;;;;;;;2.36;48.02;99922.84;2181947;81;21030;-61
2022/03/23 22:57:39;;;;;;;163.57;78.55;;;;;;;2.35;48.12;99924.55;2182347;82;21029;-61
2022/03/23 23:00:40;;;;;;;192.30;89.72;;;;;;;2.31;48.16;99928.49;2181949;81;20947;-61
2022/03/23 23:03:42;;;;;;;145.10;67.82;;;;;;;2.25;48.41;99930.70;2182450;81;21478;-61
2022/03/23 23:06:43;;;;;;;147.87;64.00;;;;;;;2.24;48.78;99926.38;2182192;81;21009;-61
2022/03/23 23:09:45;;;;;;;167.68;77.20;;;;;;;2.15;49.02;99929.92;2181933;81;21743;-61
2022/03/23 23:12:46;;;;;;;163.00;79.82;;;;;;;2.08;49.28;99923.96;2181970;81;21030;-61
2022/03/23 23:15:47;;;;;;;176.95;83.42;;;;;;;2.17;49.00;99923.44;2181959;81;20986;-60
2022/03/23 23:18:49;;;;;;;136.77;63.95;;;;;;;2.17;49.01;99919.13;2182180;81;20994;-61
2022/03/23 23:21:51;;;;;;;156.00;70.75;;;;;;;2.11;49.23;99922.20;2182088;82;21021;-60
2022/03/23 23:24:53;;;;;;;141.85;64.22;;;;;;;2.03;49.19;99926.16;2182413;81;21009;-60
2022/03/23 23:27:54;;;;;;;148.87;64.32;;;;;;;2.00;49.65;99928.78;2182129;81;21021;-61
2022/03/23 23:30:56;;;;;;;142.98;61.33;;;;;;;1.94;49.68;99926.22;2181886;82;20994;-61
2022/03/23 23:33:57;;;;;;;169.17;73.55;;;;;;;1.96;50.06;99928.38;2181929;81;20986;-61
2022/03/23 23:36:59;;;;;;;130.72;58.40;;;;;;;1.82;49.97;99931.06;2181882;81;21472;-60
2022/03/23 23:40:00;;;;;;;128.50;56.68;;;;;;;1.81;50.47;99931.52;2182055;81;20972;-61
2022/03/23 23:43:04;;;;;;;149.17;65.30;;;;;;;1.71;50.29;99924.25;2182121;81;20982;-61
2022/03/23 23:46:05;;;;;;;152.30;65.60;;;;;;;1.64;50.49;99917.81;2163172;82;21533;-61
2022/03/23 23:49:07;;;;;;;149.47;67.58;;;;;;;1.63;50.69;99923.44;2182049;81;21018;-61
2022/03/23 23:52:09;;;;;;;117.57;51.20;;;;;;;1.66;50.51;99915.65;2182409;82;21497;-61
2022/03/23 23:55:10;;;;;;;110.40;46.77;;;;;;;1.59;51.04;99920.44;2182191;81;20981;-61
2022/03/23 23:58:12;;;;;;;123.40;49.50;;;;;;;1.71;51.31;99913.91;2182168;82;22051;-61
